sensor_id;sensor_type;location;lat;lon;timestamp;P1;durP1;ratioP1;P2;durP2;ratioP2
5349;SDS011;2697;42.144;24.794;2022-11-20T00:00:55;43.33;;;22.43;;
5349;SDS011;2697;42.144;24.794;2022-11-20T00:03:21;47.27;;;22.97;;
5349;SDS011;2697;42.144;24.794;2022-11-20T00:05:46;62.07;;;25.23;;
5349;SDS011;2697;42.144;24.794;2022-11-20T00:08:12;47.47;;;23.97;;
5349;SDS011;2697;42.144;24.794;2022-11-20T00:10:38;54.30;;;25.33;;
5349;SDS011;2697;42.144;24.794;2022-11-20T00:13:04;83.07;;;23.67;;
5349;SDS011;2697;42.144;24.794;2022-11-20T00:15:29;52.97;;;23.20;;
5349;SDS011;2697;42.144;24.794;2022-11-20T00:17:55;48.30;;;23.97;;
5349;SDS011;2697;42.144;24.794;2022-11-20T00:20:20;48.97;;;25.27;;
5349;SDS011;2697;42.144;24.794;2022-11-20T00:22:46;55.50;;;24.63;;
5349;SDS011;2697;42.144;24.794;2022-11-20T00:25:11;59.73;;;25.60;;
5349;SDS011;2697;42.144;24.794;2022-11-20T00:27:37;63.27;;;24.43;;
5349;SDS011;2697;42.144;24.794;2022-11-20T00:30:03;64.03;;;26.40;;
5349;SDS011;2697;42.144;24.794;2022-11-20T00:32:29;46.93;;;23.87;;
5349;SDS011;2697;42.144;24.794;2022-11-20T00:34:55;44.07;;;22.90;;
5349;SDS011;2697;42.144;24.794;2022-11-20T00:37:20;46.33;;;22.80;;
5349;SDS011;2697;42.144;24.794;2022-11-20T00:39:45;40.80;;;21.30;;
5349;SDS011;2697;42.144;24.794;2022-11-20T00:42:11;48.23;;;22.57;;
5349;SDS011;2697;42.144;24.794;2022-11-20T00:44:36;54.60;;;24.13;;
5349;SDS011;2697;42.144;24.794;2022-11-20T00:47:01;50.83;;;24.03;;
5349;SDS011;2697;42.144;24.794;2022-11-20T00:49:27;52.30;;;22.47;;
5349;SDS011;2697;42.144;24.794;2022-11-20T00:51:52;45.90;;;24.70;;
5349;SDS011;2697;42.144;24.794;2022-11-20T00:54:17;51.27;;;25.07;;
5349;SDS011;2697;42.144;24.794;2022-11-20T00:56:43;63.20;;;24.20;;
5349;SDS011;2697;42.144;24.794;2022-11-20T00:59:08;49.90;;;24.37;;
5349;SDS011;2697;42.144;24.794;2022-11-20T01:01:34;61.30;;;24.53;;
5349;SDS011;2697;42.144;24.794;2022-11-20T01:04:01;43.90;;;22.40;;
5349;SDS011;2697;42.144;24.794;2022-11-20T01:06:27;49.47;;;24.40;;
5349;SDS011;2697;42.144;24.794;2022-11-20T01:08:58;51.33;;;26.30;;
5349;SDS011;2697;42.144;24.794;2022-11-20T01:11:27;51.60;;;23.50;;
5349;SDS011;2697;42.144;24.794;2022-11-20T01:13:54;62.00;;;23.70;;
5349;SDS011;2697;42.144;24.794;2022-11-20T01:16:22;45.80;;;23.87;;
5349;SDS011;2697;42.144;24.794;2022-11-20T01:18:50;50.50;;;23.70;;
5349;SDS011;2697;42.144;24.794;2022-11-20T01:21:22;71.87;;;28.00;;
5349;SDS011;2697;42.144;24.794;2022-11-20T01:23:54;49.63;;;23.47;;
5349;SDS011;2697;42.144;24.794;2022-11-20T01:26:21;49.80;;;24.60;;
5349;SDS011;2697;42.144;24.794;2022-11-20T01:28:49;49.60;;;23.03;;
5349;SDS011;2697;42.144;24.794;2022-11-20T01:31:17;51.07;;;25.67;;
5349;SDS011;2697;42.144;24.794;2022-11-20T01:33:48;46.40;;;23.87;;
5349;SDS011;2697;42.144;24.794;2022-11-20T01:36:15;53.37;;;25.80;;
5349;SDS011;2697;42.144;24.794;2022-11-20T01:38:41;63.07;;;29.93;;
5349;SDS011;2697;42.144;24.794;2022-11-20T01:41:07;83.43;;;30.57;;
5349;SDS011;2697;42.144;24.794;2022-11-20T01:43:34;57.53;;;28.57;;
5349;SDS011;2697;42.144;24.794;2022-11-20T01:51:35;71.80;;;28.10;;
5349;SDS011;2697;42.144;24.794;2022-11-20T01:54:08;63.87;;;28.60;;
5349;SDS011;2697;42.144;24.794;2022-11-20T01:56:38;69.03;;;29.00;;
5349;SDS011;2697;42.144;24.794;2022-11-20T01:59:08;55.43;;;28.20;;
5349;SDS011;2697;42.144;24.794;2022-11-20T02:01:36;56.13;;;26.80;;
5349;SDS011;2697;42.144;24.794;2022-11-20T02:04:04;55.63;;;28.30;;
5349;SDS011;2697;42.144;24.794;2022-11-20T02:06:42;82.77;;;34.57;;
5349;SDS011;2697;42.144;24.794;2022-11-20T02:09:11;67.90;;;29.47;;
5349;SDS011;2697;42.144;24.794;2022-11-20T02:11:36;56.53;;;30.07;;
5349;SDS011;2697;42.144;24.794;2022-11-20T02:14:02;75.03;;;32.57;;
5349;SDS011;2697;42.144;24.794;2022-11-20T02:16:29;69.90;;;35.07;;
5349;SDS011;2697;42.144;24.794;2022-11-20T02:18:57;71.27;;;34.90;;
5349;SDS011;2697;42.144;24.794;2022-11-20T02:26:30;63.40;;;31.53;;
5349;SDS011;2697;42.144;24.794;2022-11-20T02:28:59;58.90;;;24.50;;
5349;SDS011;2697;42.144;24.794;2022-11-20T02:31:27;60.60;;;25.40;;
5349;SDS011;2697;42.144;24.794;2022-11-20T02:33:56;46.23;;;23.80;;
5349;SDS011;2697;42.144;24.794;2022-11-20T02:36:21;47.97;;;24.60;;
5349;SDS011;2697;42.144;24.794;2022-11-20T02:38:49;50.00;;;24.83;;
5349;SDS011;2697;42.144;24.794;2022-11-20T02:41:14;56.03;;;25.53;;
5349;SDS011;2697;42.144;24.794;2022-11-20T02:43:40;59.83;;;26.23;;
5349;SDS011;2697;42.144;24.794;2022-11-20T02:46:06;49.43;;;25.30;;
5349;SDS011;2697;42.144;24.794;2022-11-20T02:48:32;46.50;;;23.17;;
5349;SDS011;2697;42.144;24.794;2022-11-20T02:50:57;55.17;;;26.27;;
5349;SDS011;2697;42.144;24.794;2022-11-20T02:53:23;56.47;;;28.47;;
5349;SDS011;2697;42.144;24.794;2022-11-20T02:55:48;61.30;;;27.60;;
5349;SDS011;2697;42.144;24.794;2022-11-20T02:58:13;57.17;;;26.63;;
5349;SDS011;2697;42.144;24.794;2022-11-20T03:00:39;59.63;;;26.57;;
5349;SDS011;2697;42.144;24.794;2022-11-20T03:03:04;55.03;;;25.70;;
5349;SDS011;2697;42.144;24.794;2022-11-20T03:05:29;48.20;;;23.43;;
5349;SDS011;2697;42.144;24.794;2022-11-20T03:07:55;57.43;;;25.23;;
5349;SDS011;2697;42.144;24.794;2022-11-20T03:10:20;47.97;;;25.17;;
5349;SDS011;2697;42.144;24.794;2022-11-20T03:12:45;46.33;;;24.60;;
5349;SDS011;2697;42.144;24.794;2022-11-20T03:15:11;46.70;;;24.33;;
5349;SDS011;2697;42.144;24.794;2022-11-20T03:17:36;43.70;;;21.10;;
5349;SDS011;2697;42.144;24.794;2022-11-20T03:20:02;51.70;;;21.20;;
5349;SDS011;2697;42.144;24.794;2022-11-20T03:22:31;45.70;;;21.57;;
5349;SDS011;2697;42.144;24.794;2022-11-20T03:24:56;40.10;;;21.17;;
5349;SDS011;2697;42.144;24.794;2022-11-20T03:27:21;40.00;;;21.57;;
5349;SDS011;2697;42.144;24.794;2022-11-20T03:29:47;37.60;;;19.50;;
5349;SDS011;2697;42.144;24.794;2022-11-20T03:32:12;37.00;;;17.57;;
5349;SDS011;2697;42.144;24.794;2022-11-20T03:34:37;40.40;;;18.87;;
5349;SDS011;2697;42.144;24.794;2022-11-20T03:37:03;38.50;;;19.40;;
5349;SDS011;2697;42.144;24.794;2022-11-20T03:39:28;40.30;;;14.70;;
5349;SDS011;2697;42.144;24.794;2022-11-20T03:41:53;32.77;;;15.70;;
5349;SDS011;2697;42.144;24.794;2022-11-20T03:44:20;34.03;;;14.37;;
5349;SDS011;2697;42.144;24.794;2022-11-20T03:46:46;26.60;;;12.40;;
5349;SDS011;2697;42.144;24.794;2022-11-20T03:49:11;32.07;;;12.40;;
5349;SDS011;2697;42.144;24.794;2022-11-20T03:51:37;27.53;;;11.27;;
5349;SDS011;2697;42.144;24.794;2022-11-20T03:54:04;31.00;;;9.83;;
5349;SDS011;2697;42.144;24.794;2022-11-20T03:56:34;25.27;;;11.17;;
5349;SDS011;2697;42.144;24.794;2022-11-20T03:59:01;32.17;;;12.33;;
5349;SDS011;2697;42.144;24.794;2022-11-20T04:01:28;36.53;;;11.33;;
5349;SDS011;2697;42.144;24.794;2022-11-20T04:03:56;22.73;;;11.30;;
5349;SDS011;2697;42.144;24.794;2022-11-20T04:06:23;31.17;;;12.87;;
5349;SDS011;2697;42.144;24.794;2022-11-20T04:08:50;26.47;;;12.03;;
5349;SDS011;2697;42.144;24.794;2022-11-20T04:11:17;31.30;;;13.90;;
5349;SDS011;2697;42.144;24.794;2022-11-20T04:13:47;30.30;;;13.60;;
5349;SDS011;2697;42.144;24.794;2022-11-20T04:16:16;31.07;;;12.03;;
5349;SDS011;2697;42.144;24.794;2022-11-20T04:18:42;31.47;;;10.83;;
5349;SDS011;2697;42.144;24.794;2022-11-20T04:21:08;18.37;;;8.37;;
5349;SDS011;2697;42.144;24.794;2022-11-20T04:23:34;21.47;;;8.73;;
5349;SDS011;2697;42.144;24.794;2022-11-20T04:26:07;22.87;;;11.10;;
5349;SDS011;2697;42.144;24.794;2022-11-20T04:28:34;16.97;;;6.67;;
5349;SDS011;2697;42.144;24.794;2022-11-20T04:31:03;27.93;;;10.77;;
5349;SDS011;2697;42.144;24.794;2022-11-20T04:33:29;23.53;;;10.30;;
5349;SDS011;2697;42.144;24.794;2022-11-20T04:35:54;28.70;;;9.47;;
5349;SDS011;2697;42.144;24.794;2022-11-20T04:38:20;42.03;;;14.73;;
5349;SDS011;2697;42.144;24.794;2022-11-20T04:40:45;22.10;;;6.43;;
5349;SDS011;2697;42.144;24.794;2022-11-20T04:43:10;20.20;;;7.53;;
5349;SDS011;2697;42.144;24.794;2022-11-20T04:45:36;25.87;;;8.07;;
5349;SDS011;2697;42.144;24.794;2022-11-20T04:48:01;26.67;;;9.07;;
5349;SDS011;2697;42.144;24.794;2022-11-20T04:50:26;18.70;;;6.90;;
5349;SDS011;2697;42.144;24.794;2022-11-20T04:52:52;18.87;;;7.00;;
5349;SDS011;2697;42.144;24.794;2022-11-20T04:55:17;32.40;;;8.30;;
5349;SDS011;2697;42.144;24.794;2022-11-20T04:57:42;13.40;;;6.03;;
5349;SDS011;2697;42.144;24.794;2022-11-20T05:00:08;15.67;;;4.77;;
5349;SDS011;2697;42.144;24.794;2022-11-20T05:02:34;20.67;;;4.57;;
5349;SDS011;2697;42.144;24.794;2022-11-20T05:04:59;29.23;;;4.83;;
5349;SDS011;2697;42.144;24.794;2022-11-20T05:07:24;20.80;;;4.97;;
5349;SDS011;2697;42.144;24.794;2022-11-20T05:09:50;13.73;;;4.30;;
5349;SDS011;2697;42.144;24.794;2022-11-20T05:12:15;12.33;;;4.20;;
5349;SDS011;2697;42.144;24.794;2022-11-20T05:14:40;11.90;;;4.60;;
5349;SDS011;2697;42.144;24.794;2022-11-20T05:17:06;16.50;;;4.73;;
5349;SDS011;2697;42.144;24.794;2022-11-20T05:19:35;22.67;;;4.50;;
5349;SDS011;2697;42.144;24.794;2022-11-20T05:22:00;22.03;;;6.10;;
5349;SDS011;2697;42.144;24.794;2022-11-20T05:24:25;16.20;;;4.77;;
5349;SDS011;2697;42.144;24.794;2022-11-20T05:26:51;9.60;;;4.07;;
5349;SDS011;2697;42.144;24.794;2022-11-20T05:29:16;16.73;;;4.57;;
5349;SDS011;2697;42.144;24.794;2022-11-20T05:31:41;16.50;;;5.60;;
5349;SDS011;2697;42.144;24.794;2022-11-20T05:34:07;19.30;;;6.70;;
5349;SDS011;2697;42.144;24.794;2022-11-20T05:36:33;11.63;;;4.33;;
5349;SDS011;2697;42.144;24.794;2022-11-20T05:38:58;17.73;;;5.70;;
5349;SDS011;2697;42.144;24.794;2022-11-20T05:41:24;11.50;;;5.03;;
5349;SDS011;2697;42.144;24.794;2022-11-20T05:43:50;9.87;;;5.80;;
5349;SDS011;2697;42.144;24.794;2022-11-20T05:46:17;18.70;;;5.70;;
5349;SDS011;2697;42.144;24.794;2022-11-20T05:48:44;22.37;;;5.70;;
5349;SDS011;2697;42.144;24.794;2022-11-20T05:51:11;28.43;;;5.53;;
5349;SDS011;2697;42.144;24.794;2022-11-20T05:53:38;18.20;;;5.50;;
5349;SDS011;2697;42.144;24.794;2022-11-20T05:56:05;11.53;;;5.60;;
5349;SDS011;2697;42.144;24.794;2022-11-20T05:58:32;17.80;;;5.40;;
5349;SDS011;2697;42.144;24.794;2022-11-20T06:01:06;18.63;;;5.40;;
5349;SDS011;2697;42.144;24.794;2022-11-20T06:03:33;22.53;;;7.63;;
5349;SDS011;2697;42.144;24.794;2022-11-20T06:05:58;17.60;;;6.30;;
5349;SDS011;2697;42.144;24.794;2022-11-20T06:08:24;25.23;;;6.60;;
5349;SDS011;2697;42.144;24.794;2022-11-20T06:10:50;17.20;;;7.00;;
5349;SDS011;2697;42.144;24.794;2022-11-20T06:13:15;18.50;;;7.50;;
5349;SDS011;2697;42.144;24.794;2022-11-20T06:15:40;21.83;;;7.97;;
5349;SDS011;2697;42.144;24.794;2022-11-20T06:18:06;20.33;;;6.63;;
5349;SDS011;2697;42.144;24.794;2022-11-20T06:20:31;15.67;;;5.40;;
5349;SDS011;2697;42.144;24.794;2022-11-20T06:22:56;16.63;;;5.10;;
5349;SDS011;2697;42.144;24.794;2022-11-20T06:25:22;13.80;;;5.80;;
5349;SDS011;2697;42.144;24.794;2022-11-20T06:27:47;18.20;;;5.43;;
5349;SDS011;2697;42.144;24.794;2022-11-20T06:30:12;13.90;;;4.37;;
5349;SDS011;2697;42.144;24.794;2022-11-20T06:32:38;11.63;;;4.20;;
5349;SDS011;2697;42.144;24.794;2022-11-20T06:35:03;13.83;;;5.93;;
5349;SDS011;2697;42.144;24.794;2022-11-20T06:37:29;22.33;;;5.90;;
5349;SDS011;2697;42.144;24.794;2022-11-20T06:39:54;10.83;;;4.00;;
5349;SDS011;2697;42.144;24.794;2022-11-20T06:42:20;18.60;;;5.10;;
5349;SDS011;2697;42.144;24.794;2022-11-20T06:44:45;15.00;;;5.33;;
5349;SDS011;2697;42.144;24.794;2022-11-20T06:47:10;27.90;;;5.63;;
5349;SDS011;2697;42.144;24.794;2022-11-20T06:49:36;16.50;;;7.77;;
5349;SDS011;2697;42.144;24.794;2022-11-20T06:52:03;12.30;;;4.30;;
5349;SDS011;2697;42.144;24.794;2022-11-20T06:54:29;16.20;;;5.10;;
5349;SDS011;2697;42.144;24.794;2022-11-20T06:56:54;12.77;;;4.23;;
5349;SDS011;2697;42.144;24.794;2022-11-20T06:59:19;18.53;;;4.33;;
5349;SDS011;2697;42.144;24.794;2022-11-20T07:01:45;10.43;;;4.53;;
5349;SDS011;2697;42.144;24.794;2022-11-20T07:04:10;28.67;;;6.30;;
5349;SDS011;2697;42.144;24.794;2022-11-20T07:06:35;11.53;;;4.60;;
5349;SDS011;2697;42.144;24.794;2022-11-20T07:09:01;15.77;;;4.90;;
5349;SDS011;2697;42.144;24.794;2022-11-20T07:11:26;30.63;;;5.90;;
5349;SDS011;2697;42.144;24.794;2022-11-20T07:13:52;9.47;;;5.50;;
5349;SDS011;2697;42.144;24.794;2022-11-20T07:16:17;12.03;;;5.57;;
5349;SDS011;2697;42.144;24.794;2022-11-20T07:18:42;19.07;;;6.30;;
5349;SDS011;2697;42.144;24.794;2022-11-20T07:21:08;10.77;;;4.73;;
5349;SDS011;2697;42.144;24.794;2022-11-20T07:23:35;18.17;;;6.00;;
5349;SDS011;2697;42.144;24.794;2022-11-20T07:26:04;9.80;;;5.60;;
5349;SDS011;2697;42.144;24.794;2022-11-20T07:28:31;13.93;;;6.40;;
5349;SDS011;2697;42.144;24.794;2022-11-20T07:30:57;34.67;;;8.20;;
5349;SDS011;2697;42.144;24.794;2022-11-20T07:33:22;17.80;;;6.67;;
5349;SDS011;2697;42.144;24.794;2022-11-20T07:35:47;23.67;;;8.10;;
5349;SDS011;2697;42.144;24.794;2022-11-20T07:38:13;25.23;;;7.20;;
5349;SDS011;2697;42.144;24.794;2022-11-20T07:40:38;17.30;;;5.60;;
5349;SDS011;2697;42.144;24.794;2022-11-20T07:43:04;20.63;;;6.50;;
5349;SDS011;2697;42.144;24.794;2022-11-20T07:45:30;18.90;;;6.37;;
5349;SDS011;2697;42.144;24.794;2022-11-20T07:47:55;25.03;;;6.40;;
5349;SDS011;2697;42.144;24.794;2022-11-20T07:50:20;18.63;;;5.03;;
5349;SDS011;2697;42.144;24.794;2022-11-20T07:52:46;13.47;;;6.17;;
5349;SDS011;2697;42.144;24.794;2022-11-20T07:55:12;18.10;;;5.10;;
5349;SDS011;2697;42.144;24.794;2022-11-20T07:57:38;16.10;;;6.20;;
5349;SDS011;2697;42.144;24.794;2022-11-20T08:00:03;13.20;;;5.20;;
5349;SDS011;2697;42.144;24.794;2022-11-20T08:02:30;64.10;;;9.63;;
5349;SDS011;2697;42.144;24.794;2022-11-20T08:04:55;23.30;;;7.10;;
5349;SDS011;2697;42.144;24.794;2022-11-20T08:07:21;22.07;;;6.50;;
5349;SDS011;2697;42.144;24.794;2022-11-20T08:09:46;28.67;;;6.50;;
5349;SDS011;2697;42.144;24.794;2022-11-20T08:12:18;19.97;;;6.87;;
5349;SDS011;2697;42.144;24.794;2022-11-20T08:15:05;26.07;;;6.90;;
5349;SDS011;2697;42.144;24.794;2022-11-20T08:17:31;10.30;;;5.20;;
5349;SDS011;2697;42.144;24.794;2022-11-20T08:19:56;13.87;;;5.10;;
5349;SDS011;2697;42.144;24.794;2022-11-20T08:22:22;18.73;;;5.90;;
5349;SDS011;2697;42.144;24.794;2022-11-20T08:24:47;15.60;;;5.20;;
5349;SDS011;2697;42.144;24.794;2022-11-20T08:27:13;20.67;;;5.00;;
5349;SDS011;2697;42.144;24.794;2022-11-20T08:29:38;13.07;;;5.07;;
5349;SDS011;2697;42.144;24.794;2022-11-20T08:32:04;11.73;;;5.60;;
5349;SDS011;2697;42.144;24.794;2022-11-20T08:34:29;28.00;;;5.67;;
5349;SDS011;2697;42.144;24.794;2022-11-20T08:36:54;15.60;;;5.50;;
5349;SDS011;2697;42.144;24.794;2022-11-20T08:39:20;20.43;;;6.33;;
5349;SDS011;2697;42.144;24.794;2022-11-20T08:41:45;27.17;;;6.03;;
5349;SDS011;2697;42.144;24.794;2022-11-20T08:44:10;28.43;;;4.63;;
5349;SDS011;2697;42.144;24.794;2022-11-20T08:46:39;15.33;;;4.97;;
5349;SDS011;2697;42.144;24.794;2022-11-20T08:49:07;18.03;;;5.70;;
5349;SDS011;2697;42.144;24.794;2022-11-20T08:51:36;17.20;;;5.10;;
5349;SDS011;2697;42.144;24.794;2022-11-20T08:54:02;17.03;;;4.83;;
5349;SDS011;2697;42.144;24.794;2022-11-20T08:56:29;10.80;;;4.50;;
5349;SDS011;2697;42.144;24.794;2022-11-20T08:58:55;15.10;;;5.53;;
5349;SDS011;2697;42.144;24.794;2022-11-20T09:01:20;10.60;;;4.03;;
5349;SDS011;2697;42.144;24.794;2022-11-20T09:03:48;9.47;;;5.20;;
5349;SDS011;2697;42.144;24.794;2022-11-20T09:06:13;6.50;;;4.23;;
5349;SDS011;2697;42.144;24.794;2022-11-20T09:08:39;15.60;;;4.30;;
5349;SDS011;2697;42.144;24.794;2022-11-20T09:11:05;9.53;;;4.20;;
5349;SDS011;2697;42.144;24.794;2022-11-20T09:13:31;15.93;;;5.77;;
5349;SDS011;2697;42.144;24.794;2022-11-20T09:15:59;17.77;;;6.53;;
5349;SDS011;2697;42.144;24.794;2022-11-20T09:18:27;22.30;;;6.90;;
5349;SDS011;2697;42.144;24.794;2022-11-20T09:20:56;23.83;;;6.90;;
5349;SDS011;2697;42.144;24.794;2022-11-20T09:23:25;11.90;;;5.57;;
5349;SDS011;2697;42.144;24.794;2022-11-20T09:25:51;12.00;;;5.33;;
5349;SDS011;2697;42.144;24.794;2022-11-20T09:28:17;20.53;;;5.63;;
5349;SDS011;2697;42.144;24.794;2022-11-20T09:30:43;15.43;;;4.70;;
5349;SDS011;2697;42.144;24.794;2022-11-20T09:33:09;9.83;;;3.80;;
5349;SDS011;2697;42.144;24.794;2022-11-20T09:35:34;11.60;;;4.03;;
5349;SDS011;2697;42.144;24.794;2022-11-20T09:38:04;17.37;;;4.90;;
5349;SDS011;2697;42.144;24.794;2022-11-20T09:40:32;17.90;;;5.23;;
5349;SDS011;2697;42.144;24.794;2022-11-20T09:43:02;8.53;;;3.63;;
5349;SDS011;2697;42.144;24.794;2022-11-20T09:45:37;14.17;;;4.27;;
5349;SDS011;2697;42.144;24.794;2022-11-20T09:50:57;20.80;;;4.60;;
5349;SDS011;2697;42.144;24.794;2022-11-20T09:55:57;15.50;;;4.57;;
5349;SDS011;2697;42.144;24.794;2022-11-20T09:58:38;14.33;;;4.67;;
5349;SDS011;2697;42.144;24.794;2022-11-20T10:01:15;9.40;;;3.53;;
5349;SDS011;2697;42.144;24.794;2022-11-20T10:06:33;15.77;;;6.17;;
5349;SDS011;2697;42.144;24.794;2022-11-20T10:11:52;13.53;;;4.30;;
5349;SDS011;2697;42.144;24.794;2022-11-20T10:25:19;9.60;;;3.73;;
5349;SDS011;2697;42.144;24.794;2022-11-20T10:31:06;9.40;;;3.30;;
5349;SDS011;2697;42.144;24.794;2022-11-20T10:33:44;19.60;;;4.67;;
5349;SDS011;2697;42.144;24.794;2022-11-20T10:36:19;25.27;;;4.10;;
5349;SDS011;2697;42.144;24.794;2022-11-20T10:38:50;11.77;;;3.70;;
5349;SDS011;2697;42.144;24.794;2022-11-20T10:41:39;14.80;;;3.73;;
5349;SDS011;2697;42.144;24.794;2022-11-20T10:44:11;9.43;;;3.60;;
5349;SDS011;2697;42.144;24.794;2022-11-20T10:47:01;13.77;;;3.83;;
5349;SDS011;2697;42.144;24.794;2022-11-20T10:49:26;35.13;;;6.30;;
5349;SDS011;2697;42.144;24.794;2022-11-20T10:52:09;21.80;;;6.57;;
5349;SDS011;2697;42.144;24.794;2022-11-20T10:54:39;22.93;;;6.07;;
5349;SDS011;2697;42.144;24.794;2022-11-20T11:00:12;9.70;;;4.90;;
5349;SDS011;2697;42.144;24.794;2022-11-20T11:02:48;16.90;;;6.20;;
5349;SDS011;2697;42.144;24.794;2022-11-20T11:07:58;26.93;;;7.90;;
5349;SDS011;2697;42.144;24.794;2022-11-20T11:10:26;35.77;;;10.60;;
5349;SDS011;2697;42.144;24.794;2022-11-20T11:13:07;33.03;;;10.43;;
5349;SDS011;2697;42.144;24.794;2022-11-20T11:15:43;34.93;;;11.20;;
5349;SDS011;2697;42.144;24.794;2022-11-20T11:18:09;36.40;;;11.80;;
5349;SDS011;2697;42.144;24.794;2022-11-20T11:20:36;32.57;;;11.70;;
5349;SDS011;2697;42.144;24.794;2022-11-20T11:23:02;33.13;;;11.97;;
5349;SDS011;2697;42.144;24.794;2022-11-20T11:25:36;25.77;;;9.30;;
5349;SDS011;2697;42.144;24.794;2022-11-20T11:28:03;14.57;;;4.10;;
5349;SDS011;2697;42.144;24.794;2022-11-20T11:30:44;40.10;;;11.73;;
5349;SDS011;2697;42.144;24.794;2022-11-20T11:33:11;34.87;;;10.37;;
5349;SDS011;2697;42.144;24.794;2022-11-20T11:35:45;46.33;;;11.50;;
5349;SDS011;2697;42.144;24.794;2022-11-20T11:38:14;20.37;;;7.53;;
5349;SDS011;2697;42.144;24.794;2022-11-20T11:40:43;23.27;;;4.47;;
5349;SDS011;2697;42.144;24.794;2022-11-20T11:43:19;23.13;;;6.43;;
5349;SDS011;2697;42.144;24.794;2022-11-20T11:46:09;19.47;;;6.97;;
5349;SDS011;2697;42.144;24.794;2022-11-20T11:52:17;20.53;;;8.80;;
5349;SDS011;2697;42.144;24.794;2022-11-20T12:02:29;33.10;;;13.13;;
5349;SDS011;2697;42.144;24.794;2022-11-20T12:05:03;47.80;;;16.10;;
5349;SDS011;2697;42.144;24.794;2022-11-20T12:12:55;31.37;;;12.00;;
5349;SDS011;2697;42.144;24.794;2022-11-20T12:15:31;35.30;;;14.03;;
5349;SDS011;2697;42.144;24.794;2022-11-20T12:17:59;42.50;;;15.27;;
5349;SDS011;2697;42.144;24.794;2022-11-20T12:20:35;64.73;;;18.07;;
5349;SDS011;2697;42.144;24.794;2022-11-20T12:23:18;46.37;;;17.23;;
5349;SDS011;2697;42.144;24.794;2022-11-20T12:25:54;47.37;;;17.40;;
5349;SDS011;2697;42.144;24.794;2022-11-20T12:28:44;24.17;;;9.63;;
5349;SDS011;2697;42.144;24.794;2022-11-20T12:31:33;33.60;;;12.23;;
5349;SDS011;2697;42.144;24.794;2022-11-20T12:36:54;40.40;;;13.07;;
5349;SDS011;2697;42.144;24.794;2022-11-20T12:48:00;171.93;;;53.57;;
5349;SDS011;2697;42.144;24.794;2022-11-20T12:53:04;103.57;;;36.33;;
5349;SDS011;2697;42.144;24.794;2022-11-20T12:58:27;45.97;;;16.87;;
5349;SDS011;2697;42.144;24.794;2022-11-20T13:07:05;32.53;;;10.77;;
5349;SDS011;2697;42.144;24.794;2022-11-20T13:09:35;23.50;;;9.20;;
5349;SDS011;2697;42.144;24.794;2022-11-20T13:12:12;50.17;;;11.20;;
5349;SDS011;2697;42.144;24.794;2022-11-20T13:14:47;46.60;;;10.40;;
5349;SDS011;2697;42.144;24.794;2022-11-20T13:17:45;43.13;;;10.37;;
5349;SDS011;2697;42.144;24.794;2022-11-20T13:20:21;31.30;;;8.00;;
5349;SDS011;2697;42.144;24.794;2022-11-20T13:22:50;34.70;;;7.77;;
5349;SDS011;2697;42.144;24.794;2022-11-20T13:27:52;35.77;;;10.30;;
5349;SDS011;2697;42.144;24.794;2022-11-20T13:30:19;31.60;;;10.63;;
5349;SDS011;2697;42.144;24.794;2022-11-20T13:32:52;23.50;;;9.07;;
5349;SDS011;2697;42.144;24.794;2022-11-20T13:38:07;34.33;;;10.70;;
5349;SDS011;2697;42.144;24.794;2022-11-20T13:40:38;62.93;;;20.70;;
5349;SDS011;2697;42.144;24.794;2022-11-20T13:43:44;40.17;;;14.77;;
5349;SDS011;2697;42.144;24.794;2022-11-20T13:46:12;47.47;;;12.13;;
5349;SDS011;2697;42.144;24.794;2022-11-20T13:48:39;51.77;;;13.10;;
5349;SDS011;2697;42.144;24.794;2022-11-20T13:56:36;15.53;;;4.13;;
5349;SDS011;2697;42.144;24.794;2022-11-20T14:01:47;12.27;;;3.20;;
5349;SDS011;2697;42.144;24.794;2022-11-20T14:04:15;27.93;;;4.70;;
5349;SDS011;2697;42.144;24.794;2022-11-20T14:06:44;17.37;;;4.50;;
5349;SDS011;2697;42.144;24.794;2022-11-20T14:09:13;31.60;;;2.80;;
5349;SDS011;2697;42.144;24.794;2022-11-20T14:11:50;29.93;;;2.30;;
5349;SDS011;2697;42.144;24.794;2022-11-20T14:14:16;8.97;;;2.50;;
5349;SDS011;2697;42.144;24.794;2022-11-20T14:16:44;10.77;;;1.87;;
5349;SDS011;2697;42.144;24.794;2022-11-20T14:21:44;10.43;;;1.80;;
5349;SDS011;2697;42.144;24.794;2022-11-20T14:24:11;9.20;;;1.30;;
5349;SDS011;2697;42.144;24.794;2022-11-20T14:26:41;7.13;;;1.20;;
5349;SDS011;2697;42.144;24.794;2022-11-20T14:29:21;3.20;;;1.40;;
5349;SDS011;2697;42.144;24.794;2022-11-20T14:31:52;3.20;;;1.37;;
5349;SDS011;2697;42.144;24.794;2022-11-20T14:34:19;3.20;;;1.50;;
5349;SDS011;2697;42.144;24.794;2022-11-20T14:36:48;4.83;;;2.03;;
5349;SDS011;2697;42.144;24.794;2022-11-20T14:39:20;8.73;;;1.10;;
5349;SDS011;2697;42.144;24.794;2022-11-20T14:41:50;5.40;;;1.60;;
5349;SDS011;2697;42.144;24.794;2022-11-20T14:44:17;7.67;;;1.77;;
5349;SDS011;2697;42.144;24.794;2022-11-20T14:46:44;3.93;;;1.13;;
5349;SDS011;2697;42.144;24.794;2022-11-20T14:49:10;4.50;;;1.87;;
5349;SDS011;2697;42.144;24.794;2022-11-20T14:51:39;3.17;;;1.80;;
5349;SDS011;2697;42.144;24.794;2022-11-20T14:54:11;16.17;;;4.17;;
5349;SDS011;2697;42.144;24.794;2022-11-20T14:56:37;14.17;;;1.90;;
5349;SDS011;2697;42.144;24.794;2022-11-20T14:59:03;5.00;;;1.93;;
5349;SDS011;2697;42.144;24.794;2022-11-20T15:01:29;6.00;;;1.63;;
5349;SDS011;2697;42.144;24.794;2022-11-20T15:04:06;7.47;;;1.50;;
5349;SDS011;2697;42.144;24.794;2022-11-20T15:06:35;7.73;;;1.60;;
5349;SDS011;2697;42.144;24.794;2022-11-20T15:09:02;7.67;;;1.60;;
5349;SDS011;2697;42.144;24.794;2022-11-20T15:11:29;12.43;;;2.40;;
5349;SDS011;2697;42.144;24.794;2022-11-20T15:14:04;9.27;;;2.00;;
5349;SDS011;2697;42.144;24.794;2022-11-20T15:16:31;3.60;;;2.20;;
5349;SDS011;2697;42.144;24.794;2022-11-20T15:18:57;11.53;;;4.60;;
5349;SDS011;2697;42.144;24.794;2022-11-20T15:21:23;2.03;;;1.40;;
5349;SDS011;2697;42.144;24.794;2022-11-20T15:23:49;6.27;;;2.10;;
5349;SDS011;2697;42.144;24.794;2022-11-20T15:26:18;4.83;;;2.73;;
5349;SDS011;2697;42.144;24.794;2022-11-20T15:28:52;12.90;;;2.80;;
5349;SDS011;2697;42.144;24.794;2022-11-20T15:31:19;6.00;;;1.77;;
5349;SDS011;2697;42.144;24.794;2022-11-20T15:33:46;8.13;;;3.20;;
5349;SDS011;2697;42.144;24.794;2022-11-20T15:36:12;9.93;;;2.30;;
5349;SDS011;2697;42.144;24.794;2022-11-20T15:38:37;9.10;;;1.80;;
5349;SDS011;2697;42.144;24.794;2022-11-20T15:41:03;8.77;;;2.37;;
5349;SDS011;2697;42.144;24.794;2022-11-20T15:43:28;4.67;;;2.40;;
5349;SDS011;2697;42.144;24.794;2022-11-20T15:45:55;10.03;;;2.90;;
5349;SDS011;2697;42.144;24.794;2022-11-20T15:51:02;3.60;;;2.10;;
5349;SDS011;2697;42.144;24.794;2022-11-20T15:53:32;15.37;;;1.60;;
5349;SDS011;2697;42.144;24.794;2022-11-20T15:55:57;6.80;;;1.80;;
5349;SDS011;2697;42.144;24.794;2022-11-20T15:58:22;3.27;;;2.20;;
5349;SDS011;2697;42.144;24.794;2022-11-20T16:00:49;7.97;;;1.40;;
5349;SDS011;2697;42.144;24.794;2022-11-20T16:03:15;10.07;;;3.67;;
5349;SDS011;2697;42.144;24.794;2022-11-20T16:05:41;4.90;;;1.73;;
5349;SDS011;2697;42.144;24.794;2022-11-20T16:08:07;6.63;;;1.80;;
5349;SDS011;2697;42.144;24.794;2022-11-20T16:10:32;10.43;;;1.80;;
5349;SDS011;2697;42.144;24.794;2022-11-20T16:12:58;4.00;;;1.93;;
5349;SDS011;2697;42.144;24.794;2022-11-20T16:15:42;3.20;;;1.93;;
5349;SDS011;2697;42.144;24.794;2022-11-20T16:18:10;7.77;;;1.77;;
5349;SDS011;2697;42.144;24.794;2022-11-20T16:20:38;6.50;;;1.90;;
5349;SDS011;2697;42.144;24.794;2022-11-20T16:23:04;10.53;;;1.97;;
5349;SDS011;2697;42.144;24.794;2022-11-20T16:25:30;11.63;;;2.80;;
5349;SDS011;2697;42.144;24.794;2022-11-20T16:27:55;24.00;;;4.20;;
5349;SDS011;2697;42.144;24.794;2022-11-20T16:30:20;30.33;;;2.50;;